Aérodrome :
LOGIN :

S'inscrire | Disclaimer

   EN    FR    IT 

 










Légende :    VFR   VFR Marginal   IFR   IFR Intensif   IFR Très Intensif
Visi : 
Plafond : 
>= 8 km
>= 3000ft
5 à 8 km
1000 à 3000 ft
1500m à 5 km
500 à 1000 ft
800 à 1500m
200 à 500 ft
< 800m
< 200 ft
Symboles :   Orages  Brouillard  Fortes neiges  Fortes précipitations  Vent > 20 kt
SIGMETs :   Divers  Orages  Givrage  Turbulence  Onde Orograph.  Cendres Volcan.







- Altitude de l'aérodrome : 464 ft
- Code IATA : EVX
- Voir les cartes d'approche


LFOE - Evreux

DERNIER METAR :
  • 231600Z AUTO 10007KT 050V110 CAVOK 20/09 Q1020

METARs EXPIRÉS :
  • 231530Z AUTO 11006KT 070V140 CAVOK 20/10 Q1020
  • 231500Z AUTO 11006KT 070V180 CAVOK 20/09 Q1021
  • 231430Z AUTO 13003KT 100V190 CAVOK 20/10 Q1021
  • 231400Z AUTO 12006KT 080V220 9999 FEW038 20/09 Q1021
  • 231330Z AUTO 12006KT 080V170 9999 FEW037 20/10 Q1021

TAF TAF LFOE
Valide du 23 à 15h jusqu'au 24 à 15h UTC


231400Z 2315/2415 10005KT 9999 FEW030
PROB40
TEMPO 2400/2407 0500 BCFG
Pas de NOTAMs connus pour ce terrain.



MET'MAP, la Météo Aéronautique d'un coup d'oeil ! - Copyright ORBIFLY Décembre 2007 - Disclaimer

ORBIFLY MET'MAP TEAM :

Programmation & Développement : Alexandra Zaïnal
Conception & Développement : Baudouin d'Aumeries
Co-Programmation & Développement : Marc-Olivier Méhu
Soutien technique & logistique : Manuel Goepfert

Contact : metmap@orbifly.com




SOURCES & CREDITS :

   NOAA